Time;durP1;ratioP1;P1;durP2;ratioP2;P2;SDS_P1;SDS_P2;PMS_P1;PMS_P2;Temp;Humidity;BMP_temperature;BMP_pressure;BME280_temperature;BME280_humidity;BME280_pressure;Samples;Min_cycle;Max_cycle;Signal;HPM_P1;HPM_P2
2021/05/15 00:01:48;;;;;;;3.43;1.27;;;11.70;80.50;;;;;;5038064;28;20770;-74
2021/05/15 00:04:14;;;;;;;1.33;1.10;;;11.70;80.60;;;;;;5050232;28;20207;-72
2021/05/15 00:06:40;;;;;;;1.97;1.30;;;11.70;80.60;;;;;;5048306;28;20428;-73
2021/05/15 00:09:06;;;;;;;3.90;1.30;;;11.70;80.50;;;;;;5041252;28;20196;-72
2021/05/15 00:11:32;;;;;;;1.93;1.50;;;11.70;80.50;;;;;;5034429;28;20201;-73
2021/05/15 00:13:58;;;;;;;1.83;1.27;;;11.60;80.50;;;;;;5041052;28;20448;-75
2021/05/15 00:16:23;;;;;;;2.10;1.30;;;11.60;80.50;;;;;;5034719;28;20420;-74
2021/05/15 00:18:49;;;;;;;2.70;1.57;;;11.60;80.00;;;;;;5026959;28;20193;-75
2021/05/15 00:21:15;;;;;;;3.43;1.40;;;11.50;80.00;;;;;;5043083;28;20229;-72
2021/05/15 00:23:41;;;;;;;2.97;1.30;;;11.50;80.20;;;;;;5041938;28;20268;-73
2021/05/15 00:26:06;;;;;;;1.83;1.47;;;11.60;79.90;;;;;;5041742;28;20249;-72
2021/05/15 00:28:32;;;;;;;1.60;1.03;;;11.50;80.20;;;;;;5059880;28;20204;-73
2021/05/15 00:30:58;;;;;;;1.43;1.20;;;11.50;80.80;;;;;;5056533;28;20222;-73
2021/05/15 00:33:25;;;;;;;1.80;1.23;;;11.40;80.60;;;;;;5042185;28;20481;-72
2021/05/15 00:35:51;;;;;;;1.40;1.30;;;11.40;81.10;;;;;;5031381;28;20409;-73
2021/05/15 00:38:17;;;;;;;1.70;1.47;;;11.40;81.20;;;;;;5031041;28;20415;-73
2021/05/15 00:40:43;;;;;;;2.63;1.50;;;11.40;81.10;;;;;;5044148;28;20949;-73
2021/05/15 00:43:09;;;;;;;2.20;1.30;;;11.40;81.10;;;;;;5030681;28;20505;-72
2021/05/15 00:45:36;;;;;;;3.20;1.00;;;11.30;80.80;;;;;;5028542;28;20447;-73
2021/05/15 00:48:03;;;;;;;3.17;1.20;;;11.30;80.80;;;;;;5036637;28;20427;-74
2021/05/15 00:50:30;;;;;;;1.97;1.40;;;11.30;80.50;;;;;;5046186;28;20432;-73
2021/05/15 00:52:56;;;;;;;4.40;1.40;;;11.30;80.20;;;;;;5024346;28;20475;-72
2021/05/15 00:55:22;;;;;;;1.50;1.00;;;11.30;80.50;;;;;;5042443;28;20830;-72
2021/05/15 00:57:48;;;;;;;1.70;1.17;;;11.30;80.50;;;;;;5030610;28;20420;-72
2021/05/15 01:00:15;;;;;;;1.03;1.00;;;11.30;80.30;;;;;;5043313;28;20247;-73
2021/05/15 01:02:42;;;;;;;1.70;1.10;;;11.30;79.50;;;;;;5029793;28;20494;-72
2021/05/15 01:05:10;;;;;;;2.10;1.27;;;11.30;79.50;;;;;;5030082;28;20799;-73
2021/05/15 01:07:37;;;;;;;2.57;1.17;;;11.30;79.60;;;;;;5041069;28;21085;-72
2021/05/15 01:10:05;;;;;;;1.40;1.10;;;11.30;79.60;;;;;;5031740;28;20515;-71
2021/05/15 01:12:31;;;;;;;1.80;1.20;;;11.30;79.50;;;;;;5029955;28;20570;-72
2021/05/15 01:14:58;;;;;;;1.83;0.93;;;11.20;79.60;;;;;;5028732;28;20436;-72
2021/05/15 01:17:24;;;;;;;2.30;1.20;;;11.20;80.00;;;;;;5027223;28;20504;-71
2021/05/15 01:19:50;;;;;;;2.07;1.20;;;11.10;80.30;;;;;;5047103;28;20510;-73
2021/05/15 01:22:16;;;;;;;3.53;1.10;;;11.10;80.30;;;;;;5037398;28;20193;-72
2021/05/15 01:24:44;;;;;;;1.40;1.03;;;11.10;80.30;;;;;;5042790;28;20216;-73
2021/05/15 01:27:13;;;;;;;1.53;1.03;;;11.10;80.30;;;;;;5042626;28;20450;-73
2021/05/15 01:29:39;;;;;;;1.57;1.00;;;11.10;80.60;;;;;;5035935;28;20484;-72
2021/05/15 01:32:05;;;;;;;4.40;1.00;;;11.10;80.60;;;;;;5035937;28;20510;-72
2021/05/15 01:34:31;;;;;;;1.00;0.90;;;11.00;80.80;;;;;;5048682;28;21094;-73
2021/05/15 01:36:57;;;;;;;2.07;1.30;;;11.00;81.10;;;;;;5049697;28;20423;-72
2021/05/15 01:39:23;;;;;;;1.70;1.50;;;11.00;81.20;;;;;;5036088;28;20188;-72
2021/05/15 01:41:48;;;;;;;2.53;1.40;;;11.00;81.20;;;;;;5049190;28;20682;-72
2021/05/15 01:44:16;;;;;;;2.00;1.03;;;11.00;81.10;;;;;;5044616;28;20269;-72
2021/05/15 01:46:42;;;;;;;2.30;1.10;;;10.90;81.40;;;;;;5031541;28;20185;-72
2021/05/15 01:49:08;;;;;;;1.50;1.10;;;10.90;81.70;;;;;;5034241;28;20492;-73
2021/05/15 01:51:34;;;;;;;1.00;0.90;;;10.90;81.70;;;;;;5034349;28;20468;-73
2021/05/15 01:54:00;;;;;;;4.03;1.20;;;10.90;81.80;;;;;;5032197;28;20439;-71
2021/05/15 01:56:29;;;;;;;1.63;1.00;;;10.80;81.90;;;;;;5037861;28;20181;-72
2021/05/15 01:58:58;;;;;;;3.80;1.30;;;10.80;82.10;;;;;;5035868;28;20610;-72
2021/05/15 02:01:26;;;;;;;2.80;1.10;;;10.80;82.40;;;;;;5049606;28;20434;-72
2021/05/15 02:03:52;;;;;;;1.60;1.10;;;10.80;82.40;;;;;;5044317;28;20447;-72
2021/05/15 02:06:18;;;;;;;1.63;1.10;;;10.80;82.50;;;;;;5044505;28;20434;-72
2021/05/15 02:08:48;;;;;;;6.53;1.27;;;10.80;82.40;;;;;;5030608;28;20428;-72
2021/05/15 02:11:18;;;;;;;3.70;1.50;;;10.70;82.50;;;;;;5042701;28;20472;-73
2021/05/15 02:13:49;;;;;;;2.13;1.30;;;10.70;82.80;;;;;;5036314;28;20474;-73
2021/05/15 02:16:16;;;;;;;4.07;1.20;;;10.70;82.70;;;;;;5035670;28;20507;-73
2021/05/15 02:18:42;;;;;;;2.57;1.30;;;10.70;83.00;;;;;;5035329;28;20432;-73
2021/05/15 02:21:08;;;;;;;1.63;1.20;;;10.70;83.10;;;;;;5030649;28;20446;-73
2021/05/15 02:23:34;;;;;;;1.97;1.10;;;10.70;83.10;;;;;;5048694;28;20208;-74
2021/05/15 02:26:01;;;;;;;2.07;1.43;;;10.70;83.30;;;;;;5048790;28;20973;-74
2021/05/15 02:28:27;;;;;;;2.60;1.43;;;10.60;83.60;;;;;;5039618;28;20423;-73
2021/05/15 02:30:53;;;;;;;2.03;1.57;;;10.60;83.60;;;;;;5044328;28;20867;-73
2021/05/15 02:33:20;;;;;;;3.33;1.60;;;10.70;83.40;;;;;;5040147;28;20185;-73
2021/05/15 02:35:47;;;;;;;1.40;1.10;;;10.60;83.30;;;;;;5029868;28;20458;-72
2021/05/15 02:38:15;;;;;;;1.90;1.00;;;10.60;83.70;;;;;;5029464;28;20513;-73
2021/05/15 02:40:42;;;;;;;2.70;1.30;;;10.60;83.80;;;;;;5029302;28;20451;-72
2021/05/15 02:43:08;;;;;;;1.50;1.30;;;10.60;83.80;;;;;;5027320;28;20435;-72
2021/05/15 02:45:34;;;;;;;2.43;1.27;;;10.60;84.10;;;;;;5028806;28;20444;-73
2021/05/15 02:48:00;;;;;;;2.60;1.10;;;10.50;84.30;;;;;;5028853;28;20458;-74
2021/05/15 02:50:27;;;;;;;2.40;1.40;;;10.50;84.40;;;;;;5041919;28;20415;-73
2021/05/15 02:52:53;;;;;;;1.93;1.20;;;10.50;84.60;;;;;;5024018;28;20216;-73
2021/05/15 02:55:21;;;;;;;2.37;1.60;;;10.50;84.60;;;;;;5064135;28;20435;-74
2021/05/15 02:57:47;;;;;;;1.70;1.13;;;10.50;84.90;;;;;;5050728;28;20420;-74
2021/05/15 03:00:18;;;;;;;1.40;1.00;;;10.40;84.90;;;;;;5041642;28;21267;-74
2021/05/15 03:02:44;;;;;;;1.97;1.43;;;10.40;85.00;;;;;;5038384;28;20435;-73
2021/05/15 03:05:13;;;;;;;2.63;1.40;;;10.40;85.00;;;;;;5035092;28;20454;-73
2021/05/15 03:07:39;;;;;;;2.27;1.30;;;10.40;85.00;;;;;;5037676;28;20416;-73
2021/05/15 03:10:06;;;;;;;2.97;1.37;;;10.30;85.30;;;;;;5041505;28;20570;-73
2021/05/15 03:12:32;;;;;;;2.63;1.70;;;10.30;85.50;;;;;;5038851;28;20995;-72
2021/05/15 03:14:58;;;;;;;2.43;1.73;;;10.20;85.60;;;;;;5043949;28;20455;-72
2021/05/15 03:17:24;;;;;;;7.20;1.53;;;10.10;85.90;;;;;;5036784;28;20427;-73
2021/05/15 03:19:52;;;;;;;2.93;1.40;;;10.10;86.00;;;;;;5046001;28;20227;-72
2021/05/15 03:22:20;;;;;;;2.37;1.50;;;10.10;86.00;;;;;;5047083;28;20424;-73
2021/05/15 03:24:46;;;;;;;3.63;2.00;;;10.10;86.20;;;;;;5034814;28;20528;-72
2021/05/15 03:27:11;;;;;;;1.80;1.60;;;10.10;86.20;;;;;;5037034;28;20455;-72
2021/05/15 03:29:37;;;;;;;2.00;1.57;;;10.10;86.00;;;;;;5041328;28;20656;-72
2021/05/15 03:32:03;;;;;;;6.93;1.53;;;10.10;86.20;;;;;;5028386;28;20213;-72
2021/05/15 03:34:28;;;;;;;2.30;1.53;;;10.00;86.50;;;;;;5047016;28;20300;-73
2021/05/15 03:36:54;;;;;;;3.70;1.53;;;10.00;86.60;;;;;;5035956;28;20181;-73
2021/05/15 03:39:20;;;;;;;2.90;1.60;;;10.00;86.50;;;;;;5049482;28;20286;-73
2021/05/15 03:41:46;;;;;;;3.23;1.50;;;10.10;86.20;;;;;;5040335;28;20267;-73
2021/05/15 03:44:12;;;;;;;6.17;1.60;;;10.10;86.30;;;;;;5035595;28;20633;-71
2021/05/15 03:46:38;;;;;;;2.23;1.60;;;10.20;85.70;;;;;;5033304;28;20428;-71
2021/05/15 03:49:04;;;;;;;1.63;1.40;;;10.30;85.30;;;;;;5037258;28;20418;-73
2021/05/15 03:51:30;;;;;;;2.17;1.30;;;10.30;85.20;;;;;;5038263;28;20459;-71
2021/05/15 03:53:56;;;;;;;3.00;1.50;;;10.30;85.50;;;;;;5047153;28;20470;-72
2021/05/15 03:56:22;;;;;;;2.73;1.73;;;10.20;85.50;;;;;;5039701;28;20438;-73
2021/05/15 03:58:48;;;;;;;3.47;1.67;;;10.20;85.70;;;;;;5035855;28;20260;-72
2021/05/15 04:01:13;;;;;;;2.73;1.60;;;10.20;85.60;;;;;;5051823;28;20647;-72
2021/05/15 04:03:39;;;;;;;2.30;1.57;;;10.20;85.70;;;;;;5040629;28;20643;-73
2021/05/15 04:06:05;;;;;;;1.97;1.57;;;10.30;85.90;;;;;;5046220;28;20189;-74
2021/05/15 04:08:30;;;;;;;3.80;1.87;;;10.30;85.70;;;;;;5045488;28;20260;-73
2021/05/15 04:10:56;;;;;;;2.37;1.73;;;10.20;86.20;;;;;;5042611;28;20245;-73
2021/05/15 04:14:19;;;;;;;3.50;1.77;;;10.20;86.30;;;;;;5046812;28;20184;-73
2021/05/15 04:18:43;;;;;;;2.60;1.60;;;10.20;86.50;;;;;;5027350;28;20432;-73
2021/05/15 04:21:09;;;;;;;2.20;1.50;;;10.20;86.50;;;;;;5033381;28;20428;-74
2021/05/15 04:23:34;;;;;;;3.53;1.80;;;10.30;86.30;;;;;;5042328;28;20448;-74
2021/05/15 04:26:01;;;;;;;4.47;2.33;;;10.40;86.00;;;;;;5044858;28;20185;-74
2021/05/15 04:28:27;;;;;;;1.50;1.40;;;10.40;86.20;;;;;;5031651;28;20185;-73
2021/05/15 04:30:54;;;;;;;2.20;1.53;;;10.40;85.90;;;;;;5044444;28;20443;-73
2021/05/15 04:33:23;;;;;;;2.03;1.50;;;10.40;85.70;;;;;;5031492;28;20428;-72
2021/05/15 04:35:50;;;;;;;2.60;1.60;;;10.50;85.50;;;;;;5043158;28;20462;-72
2021/05/15 04:38:16;;;;;;;2.17;1.43;;;10.40;85.50;;;;;;5041379;28;20748;-72
2021/05/15 04:40:42;;;;;;;2.50;1.53;;;10.40;85.60;;;;;;5046600;28;20432;-72
2021/05/15 04:43:08;;;;;;;2.47;1.70;;;10.40;85.90;;;;;;5031294;28;21110;-72
2021/05/15 04:45:34;;;;;;;2.03;1.53;;;10.50;85.60;;;;;;5032439;28;20201;-72
2021/05/15 04:48:00;;;;;;;1.80;1.37;;;10.60;85.00;;;;;;5029815;28;20431;-73
2021/05/15 04:50:26;;;;;;;2.53;1.37;;;10.60;85.00;;;;;;5047390;28;20291;-71
2021/05/15 04:52:52;;;;;;;3.63;1.73;;;10.60;84.10;;;;;;5035256;28;20810;-73
2021/05/15 04:55:18;;;;;;;3.53;1.50;;;10.60;84.10;;;;;;5035695;28;20510;-72
2021/05/15 04:57:44;;;;;;;2.33;1.47;;;10.50;84.30;;;;;;5031484;28;20420;-72
2021/05/15 05:00:10;;;;;;;2.67;1.20;;;10.50;84.10;;;;;;5033195;28;20430;-72
2021/05/15 05:02:36;;;;;;;1.93;1.40;;;10.50;84.30;;;;;;5042296;28;20503;-72
2021/05/15 05:05:02;;;;;;;3.00;1.43;;;10.50;84.30;;;;;;5031643;28;20454;-74
2021/05/15 05:07:28;;;;;;;1.97;1.37;;;10.50;84.00;;;;;;5031437;28;20193;-72
2021/05/15 05:09:54;;;;;;;1.80;1.40;;;10.60;84.00;;;;;;5047245;28;20557;-72
2021/05/15 05:12:19;;;;;;;1.60;1.27;;;10.70;83.10;;;;;;5033785;28;20247;-73
2021/05/15 05:14:45;;;;;;;2.70;1.80;;;10.70;82.80;;;;;;5047104;28;20213;-72
2021/05/15 05:17:11;;;;;;;2.40;1.60;;;10.70;82.70;;;;;;5033146;28;20246;-72
2021/05/15 05:19:36;;;;;;;2.77;1.20;;;10.70;82.50;;;;;;5044609;28;20283;-72
2021/05/15 05:22:03;;;;;;;1.83;1.30;;;10.70;82.70;;;;;;5051198;28;20193;-73
2021/05/15 05:24:32;;;;;;;2.20;1.63;;;10.80;82.40;;;;;;5036770;28;20215;-71
2021/05/15 05:27:00;;;;;;;2.17;1.33;;;10.90;81.80;;;;;;5049307;28;20435;-74
2021/05/15 05:29:27;;;;;;;2.77;1.60;;;11.00;81.50;;;;;;5033200;28;20561;-73
2021/05/15 05:31:53;;;;;;;2.60;1.43;;;11.10;81.40;;;;;;5039044;28;20920;-73
2021/05/15 05:34:19;;;;;;;2.03;1.40;;;11.10;81.20;;;;;;5046578;28;20439;-73
2021/05/15 05:36:47;;;;;;;1.63;1.30;;;11.20;80.90;;;;;;5030574;28;20432;-73
2021/05/15 05:39:17;;;;;;;2.60;1.63;;;11.30;80.80;;;;;;5046146;28;20474;-73
2021/05/15 05:41:47;;;;;;;1.20;1.00;;;11.40;80.50;;;;;;5046606;28;20433;-73
2021/05/15 05:44:13;;;;;;;1.73;1.00;;;11.50;79.90;;;;;;5039329;28;20459;-73
2021/05/15 05:46:39;;;;;;;1.63;1.47;;;11.50;79.60;;;;;;5040183;28;20792;-73
2021/05/15 05:49:05;;;;;;;5.80;1.60;;;11.50;79.20;;;;;;5045095;28;20375;-73
2021/05/15 05:51:32;;;;;;;1.47;1.10;;;11.50;79.20;;;;;;5022514;28;20213;-74
2021/05/15 05:53:58;;;;;;;3.70;1.50;;;11.60;78.60;;;;;;5041098;28;20439;-73
2021/05/15 05:56:24;;;;;;;1.60;1.10;;;11.70;78.40;;;;;;5045817;28;20427;-75
2021/05/15 05:58:50;;;;;;;3.93;1.47;;;11.70;78.30;;;;;;5018273;28;20423;-74
2021/05/15 06:01:16;;;;;;;1.47;1.10;;;11.70;78.30;;;;;;5040862;28;20273;-73
2021/05/15 06:03:43;;;;;;;1.77;1.43;;;11.70;78.30;;;;;;5044067;28;20223;-74
2021/05/15 06:06:09;;;;;;;2.30;1.30;;;11.70;78.30;;;;;;5041031;28;20434;-74
2021/05/15 06:08:35;;;;;;;1.77;1.43;;;11.80;78.10;;;;;;5035730;28;20560;-74
2021/05/15 06:11:01;;;;;;;2.20;1.40;;;11.80;77.60;;;;;;5048748;28;20777;-73
2021/05/15 06:13:27;;;;;;;2.07;1.20;;;11.80;77.60;;;;;;5035131;28;20430;-71
2021/05/15 06:15:53;;;;;;;1.60;1.17;;;11.80;77.80;;;;;;5035395;28;20193;-72
2021/05/15 06:18:19;;;;;;;1.57;1.20;;;11.80;77.80;;;;;;5038201;28;20428;-73
2021/05/15 06:20:46;;;;;;;2.17;1.30;;;11.80;78.30;;;;;;5028441;28;20544;-73
2021/05/15 06:23:12;;;;;;;2.20;1.30;;;11.80;77.80;;;;;;5041571;28;20926;-73
2021/05/15 06:25:38;;;;;;;1.80;1.30;;;11.90;78.00;;;;;;5027332;28;20467;-73
2021/05/15 06:28:04;;;;;;;2.00;1.10;;;12.00;77.60;;;;;;5034992;28;20573;-72
2021/05/15 06:30:30;;;;;;;1.63;1.13;;;12.10;76.80;;;;;;5039668;28;20196;-73
2021/05/15 06:32:56;;;;;;;2.63;1.20;;;12.00;76.80;;;;;;5039008;28;20463;-73
2021/05/15 06:35:22;;;;;;;2.27;1.30;;;12.10;76.20;;;;;;5035939;28;20536;-73
2021/05/15 06:37:47;;;;;;;3.63;1.40;;;12.20;76.40;;;;;;5048397;28;20188;-73
2021/05/15 06:40:14;;;;;;;2.67;1.30;;;12.30;75.80;;;;;;5048161;28;20195;-72
2021/05/15 06:42:39;;;;;;;2.33;1.30;;;12.50;75.70;;;;;;5015205;28;20189;-73
2021/05/15 06:45:07;;;;;;;3.10;1.10;;;12.60;74.80;;;;;;5042219;28;20500;-74
2021/05/15 06:47:33;;;;;;;1.93;1.10;;;12.70;74.20;;;;;;5026019;28;20217;-72
2021/05/15 06:49:59;;;;;;;3.83;1.60;;;12.90;73.70;;;;;;5040086;28;20477;-73
2021/05/15 06:52:25;;;;;;;1.97;1.20;;;13.00;73.50;;;;;;5025173;28;20618;-73
2021/05/15 06:54:51;;;;;;;1.70;1.20;;;13.10;72.70;;;;;;5040781;28;20443;-74
2021/05/15 06:57:18;;;;;;;2.13;1.30;;;13.30;72.10;;;;;;5033935;28;20431;-73
2021/05/15 06:59:43;;;;;;;1.00;0.93;;;13.30;71.00;;;;;;5046820;28;20446;-74
2021/05/15 07:02:09;;;;;;;5.13;1.50;;;13.30;70.80;;;;;;5033544;28;20531;-75
2021/05/15 07:04:35;;;;;;;2.50;1.17;;;13.40;70.50;;;;;;5035567;28;20209;-73
2021/05/15 07:07:00;;;;;;;1.50;1.27;;;13.50;71.10;;;;;;5047882;28;20208;-73
2021/05/15 07:09:26;;;;;;;1.67;1.03;;;13.60;70.20;;;;;;5048340;28;20195;-73
2021/05/15 07:11:52;;;;;;;2.53;1.10;;;13.70;69.70;;;;;;5048221;28;20223;-73
2021/05/15 07:14:18;;;;;;;1.90;1.20;;;13.60;69.80;;;;;;5050313;28;20815;-77
2021/05/15 07:16:44;;;;;;;1.53;0.93;;;13.60;70.70;;;;;;5052515;28;20541;-72
2021/05/15 07:19:10;;;;;;;2.57;1.30;;;13.60;69.20;;;;;;5051877;28;20565;-72
2021/05/15 07:21:36;;;;;;;2.13;1.17;;;13.70;69.40;;;;;;5044742;28;21273;-73
2021/05/15 07:24:02;;;;;;;1.63;1.10;;;13.80;69.10;;;;;;5031371;28;20788;-75
2021/05/15 07:26:28;;;;;;;2.63;1.20;;;13.90;68.50;;;;;;5031180;28;20794;-73
2021/05/15 07:28:54;;;;;;;1.50;1.10;;;13.70;68.20;;;;;;5031809;28;20427;-74
2021/05/15 07:31:20;;;;;;;2.13;1.40;;;13.60;69.50;;;;;;5029922;28;20479;-74
2021/05/15 07:33:46;;;;;;;2.00;1.30;;;13.60;69.70;;;;;;5044724;28;20538;-74
2021/05/15 07:36:12;;;;;;;9.63;1.33;;;13.70;69.50;;;;;;5039244;28;20423;-74
2021/05/15 07:38:39;;;;;;;1.43;1.27;;;13.80;69.70;;;;;;5051192;28;20192;-71
2021/05/15 07:41:05;;;;;;;5.50;1.80;;;13.90;68.20;;;;;;5039070;28;20208;-70
2021/05/15 07:43:31;;;;;;;1.10;0.97;;;13.80;68.00;;;;;;5049558;28;20458;-70
2021/05/15 07:45:58;;;;;;;1.67;1.27;;;13.80;68.20;;;;;;5033918;28;20181;-69
2021/05/15 07:48:37;;;;;;;2.27;1.10;;;13.80;68.50;;;;;;5031792;28;20277;-70
2021/05/15 07:51:05;;;;;;;2.23;1.37;;;13.90;68.20;;;;;;5031399;28;20757;-71
2021/05/15 07:53:32;;;;;;;1.90;1.20;;;13.90;68.00;;;;;;5044829;28;20439;-71
2021/05/15 07:55:57;;;;;;;1.13;1.10;;;13.90;68.30;;;;;;5043680;28;20423;-71
2021/05/15 07:58:23;;;;;;;1.73;1.30;;;14.00;68.30;;;;;;5046311;28;20924;-69
2021/05/15 08:00:49;;;;;;;2.00;1.40;;;14.20;67.70;;;;;;5043247;28;20204;-70
2021/05/15 08:03:15;;;;;;;1.53;1.00;;;14.40;65.70;;;;;;5019567;28;20837;-71
2021/05/15 08:05:41;;;;;;;2.23;1.37;;;14.20;66.40;;;;;;5051766;28;20450;-70
2021/05/15 08:08:07;;;;;;;2.40;1.40;;;14.20;66.60;;;;;;5048725;28;20192;-69
2021/05/15 08:10:33;;;;;;;1.83;1.30;;;14.00;67.00;;;;;;5039124;28;20200;-71
2021/05/15 08:13:00;;;;;;;3.03;1.20;;;13.90;67.00;;;;;;5049943;28;20620;-70
2021/05/15 08:15:27;;;;;;;1.30;1.00;;;13.80;67.00;;;;;;5042806;28;20803;-69
2021/05/15 08:17:54;;;;;;;2.17;1.30;;;13.80;66.90;;;;;;5026821;28;20428;-71
2021/05/15 08:20:20;;;;;;;1.67;1.00;;;13.90;66.70;;;;;;5040380;28;20792;-69
2021/05/15 08:22:46;;;;;;;1.60;1.20;;;13.90;66.10;;;;;;5035631;28;20590;-71
2021/05/15 08:25:13;;;;;;;3.10;1.17;;;13.80;66.10;;;;;;5041856;28;20467;-71
2021/05/15 08:27:40;;;;;;;2.13;1.17;;;13.80;66.40;;;;;;5050628;28;20180;-69
2021/05/15 08:30:16;;;;;;;1.50;1.30;;;13.70;66.40;;;;;;5032741;28;20420;-70
2021/05/15 08:32:42;;;;;;;1.93;1.40;;;13.70;67.00;;;;;;5036001;28;20471;-70
2021/05/15 08:35:08;;;;;;;2.00;1.20;;;13.60;67.20;;;;;;5042876;28;20470;-73
2021/05/15 08:37:34;;;;;;;2.87;1.30;;;13.60;67.70;;;;;;5043358;28;20201;-73
2021/05/15 08:40:00;;;;;;;2.17;1.30;;;13.70;67.50;;;;;;5031548;28;20477;-73
2021/05/15 08:42:27;;;;;;;1.40;1.20;;;13.80;67.70;;;;;;5048578;28;20188;-73
2021/05/15 08:44:53;;;;;;;1.50;1.10;;;14.00;66.70;;;;;;5041543;28;20308;-73
2021/05/15 08:47:19;;;;;;;1.90;1.30;;;14.10;66.60;;;;;;5029092;28;20443;-73
2021/05/15 08:49:46;;;;;;;2.83;1.50;;;14.10;65.80;;;;;;5040473;28;20422;-73
2021/05/15 08:52:15;;;;;;;2.03;1.40;;;14.20;66.40;;;;;;5042484;28;20475;-73
2021/05/15 08:54:41;;;;;;;1.13;0.93;;;14.30;65.40;;;;;;5029941;28;20452;-73
2021/05/15 08:57:07;;;;;;;2.10;1.40;;;14.30;65.30;;;;;;5049820;28;20461;-73
2021/05/15 08:59:33;;;;;;;1.43;1.30;;;14.30;65.10;;;;;;5045041;28;20506;-73
2021/05/15 09:01:59;;;;;;;2.30;1.10;;;14.30;64.80;;;;;;5031046;28;20510;-73
2021/05/15 09:04:26;;;;;;;2.07;1.40;;;14.20;65.00;;;;;;5030692;28;20451;-73
2021/05/15 09:06:52;;;;;;;1.40;1.30;;;14.20;65.30;;;;;;5047893;28;20972;-74
2021/05/15 09:09:18;;;;;;;2.10;1.30;;;14.20;65.70;;;;;;5049969;28;20427;-72
2021/05/15 09:11:46;;;;;;;4.90;1.30;;;14.40;66.40;;;;;;5047762;28;20524;-72
2021/05/15 09:14:26;;;;;;;4.73;1.40;;;14.60;65.10;;;;;;5050997;28;20500;-74
2021/05/15 09:16:54;;;;;;;2.57;1.67;;;14.90;64.40;;;;;;5044517;28;20430;-74
2021/05/15 09:19:22;;;;;;;1.40;1.00;;;15.00;63.70;;;;;;5039138;28;20469;-73
2021/05/15 09:22:05;;;;;;;1.40;1.37;;;14.90;61.00;;;;;;5050872;28;20423;-75
2021/05/15 09:24:31;;;;;;;1.10;1.07;;;14.80;62.20;;;;;;5034219;28;21166;-74
2021/05/15 09:26:57;;;;;;;2.00;1.10;;;14.70;62.50;;;;;;5048562;28;20426;-74
2021/05/15 09:29:23;;;;;;;1.33;1.00;;;14.80;62.20;;;;;;5041883;28;20192;-73
2021/05/15 09:31:49;;;;;;;1.80;1.43;;;14.90;62.50;;;;;;5041308;28;20483;-75
2021/05/15 09:34:15;;;;;;;2.23;1.30;;;15.10;62.50;;;;;;5047622;28;20271;-73
2021/05/15 09:36:44;;;;;;;5.93;1.20;;;15.20;62.20;;;;;;5045457;28;20419;-72
2021/05/15 09:39:22;;;;;;;1.57;1.43;;;15.30;62.30;;;;;;5053348;28;20419;-75
2021/05/15 09:41:57;;;;;;;3.30;1.40;;;15.80;61.50;;;;;;5052708;28;20534;-73
2021/05/15 09:44:27;;;;;;;6.77;1.67;;;16.10;60.10;;;;;;5045152;28;20454;-74
2021/05/15 09:46:54;;;;;;;4.57;1.77;;;16.30;59.30;;;;;;5029351;28;20437;-72
2021/05/15 09:49:32;;;;;;;2.23;1.20;;;16.20;59.50;;;;;;5042551;28;20602;-74
2021/05/15 09:52:07;;;;;;;1.80;1.23;;;16.10;58.90;;;;;;5036347;28;20533;-72
2021/05/15 09:54:44;;;;;;;3.10;1.40;;;15.90;59.10;;;;;;5029843;28;20439;-74
2021/05/15 09:57:18;;;;;;;3.57;1.70;;;15.90;59.70;;;;;;5033457;28;20587;-71
2021/05/15 09:59:46;;;;;;;3.57;1.80;;;16.10;59.20;;;;;;5037040;28;20426;-72
2021/05/15 10:02:17;;;;;;;1.70;1.20;;;16.00;58.70;;;;;;5048821;28;20430;-72
2021/05/15 10:04:45;;;;;;;2.90;1.50;;;15.80;59.30;;;;;;5036403;28;20444;-75
2021/05/15 10:07:19;;;;;;;1.50;1.20;;;15.90;59.10;;;;;;5050257;28;21273;-73
2021/05/15 10:09:45;;;;;;;1.63;1.27;;;15.90;58.00;;;;;;5037540;28;20437;-73
2021/05/15 10:12:11;;;;;;;2.47;1.30;;;15.80;58.40;;;;;;5040840;28;20582;-73
2021/05/15 10:14:37;;;;;;;1.97;1.53;;;15.70;58.10;;;;;;5040949;28;20446;-73
2021/05/15 10:17:02;;;;;;;2.20;1.50;;;15.60;58.50;;;;;;5037188;28;20190;-73
2021/05/15 10:19:29;;;;;;;1.40;1.10;;;15.70;58.00;;;;;;5041865;28;20198;-73
2021/05/15 10:21:55;;;;;;;3.23;1.80;;;16.00;58.00;;;;;;5028950;28;20212;-73
2021/05/15 10:24:23;;;;;;;2.60;1.53;;;16.40;57.30;;;;;;5030923;28;21230;-73
2021/05/15 10:27:09;;;;;;;2.30;1.47;;;16.50;56.10;;;;;;5049508;28;20514;-72
2021/05/15 10:29:53;;;;;;;2.23;1.70;;;16.20;56.40;;;;;;5035833;28;20448;-72
2021/05/15 10:32:19;;;;;;;2.17;1.53;;;16.10;56.90;;;;;;5034897;28;20482;-74
2021/05/15 10:34:47;;;;;;;2.53;1.30;;;15.90;58.40;;;;;;5039818;28;20465;-71
2021/05/15 10:37:18;;;;;;;6.43;1.80;;;16.00;58.50;;;;;;5029346;28;21163;-72
2021/05/15 10:39:45;;;;;;;4.40;1.40;;;16.00;58.70;;;;;;5028584;28;20424;-73
2021/05/15 10:42:12;;;;;;;2.70;1.37;;;16.20;57.30;;;;;;5030901;28;20423;-73
2021/05/15 10:44:45;;;;;;;1.70;1.30;;;16.40;57.40;;;;;;5046964;28;20450;-73
2021/05/15 10:47:11;;;;;;;2.17;1.40;;;16.70;55.70;;;;;;5030992;28;20942;-73
2021/05/15 10:49:37;;;;;;;3.43;1.10;;;17.00;54.40;;;;;;5040774;28;20455;-73
2021/05/15 10:52:14;;;;;;;2.07;1.43;;;17.10;52.50;;;;;;5030746;28;20254;-71
2021/05/15 10:54:48;;;;;;;4.37;1.87;;;16.90;52.90;;;;;;5043027;28;20499;-73
2021/05/15 10:57:15;;;;;;;6.07;1.50;;;16.50;54.60;;;;;;5038821;28;20778;-72
2021/05/15 10:59:43;;;;;;;2.90;1.60;;;16.10;56.00;;;;;;5040187;28;20425;-73
2021/05/15 11:02:12;;;;;;;2.13;1.33;;;16.00;56.50;;;;;;5051215;28;20515;-71
2021/05/15 11:04:50;;;;;;;4.53;1.50;;;15.90;56.80;;;;;;5052327;28;20832;-72
2021/05/15 11:07:18;;;;;;;3.20;1.20;;;15.90;55.30;;;;;;5019995;28;20485;-72
2021/05/15 11:09:54;;;;;;;4.83;1.60;;;15.80;54.10;;;;;;5030165;28;20447;-74
2021/05/15 11:12:21;;;;;;;4.43;1.23;;;15.80;54.60;;;;;;5041611;28;20551;-74
2021/05/15 11:14:51;;;;;;;4.20;1.53;;;15.80;53.80;;;;;;5038346;28;20445;-72
2021/05/15 11:17:19;;;;;;;3.90;1.47;;;15.60;54.60;;;;;;5039696;28;20899;-75
2021/05/15 11:19:53;;;;;;;2.37;1.80;;;15.40;58.10;;;;;;5032856;28;20568;-72
2021/05/15 11:22:21;;;;;;;2.33;1.40;;;15.50;56.00;;;;;;5040176;28;20511;-75
2021/05/15 11:24:55;;;;;;;3.03;1.40;;;15.40;54.10;;;;;;5045515;28;20484;-74
2021/05/15 11:27:23;;;;;;;5.87;1.50;;;15.40;54.20;;;;;;5046858;28;20778;-72
2021/05/15 11:30:12;;;;;;;2.50;1.67;;;15.50;53.70;;;;;;5046054;28;20431;-73
2021/05/15 11:32:39;;;;;;;3.67;1.20;;;15.50;54.10;;;;;;5048273;28;20475;-73
2021/05/15 11:35:07;;;;;;;2.83;1.23;;;15.70;53.80;;;;;;5045474;28;20473;-73
2021/05/15 11:37:33;;;;;;;1.93;1.43;;;15.90;52.90;;;;;;5047731;28;20439;-74
2021/05/15 11:39:59;;;;;;;2.80;1.20;;;16.10;52.80;;;;;;5041837;28;20428;-74
2021/05/15 11:42:31;;;;;;;3.17;1.50;;;16.20;51.70;;;;;;5038811;28;21304;-74
2021/05/15 11:44:57;;;;;;;5.20;1.33;;;16.00;52.00;;;;;;5039801;28;20453;-75
2021/05/15 11:47:25;;;;;;;2.73;1.70;;;16.00;52.60;;;;;;5035232;28;20513;-73
2021/05/15 11:50:01;;;;;;;2.83;1.43;;;16.10;52.50;;;;;;5039442;28;20224;-71
2021/05/15 11:52:34;;;;;;;3.30;1.37;;;16.30;52.60;;;;;;5040937;28;20500;-73
2021/05/15 11:55:02;;;;;;;2.30;1.63;;;16.70;51.20;;;;;;5045444;28;20511;-74
2021/05/15 11:57:30;;;;;;;3.53;1.67;;;17.10;49.50;;;;;;5039448;28;20974;-75
2021/05/15 12:00:15;;;;;;;2.97;1.60;;;17.30;50.20;;;;;;5037451;28;20420;-74
2021/05/15 12:02:47;;;;;;;2.37;1.20;;;17.50;49.10;;;;;;5041552;28;20447;-73
2021/05/15 12:05:15;;;;;;;2.33;1.40;;;17.40;49.00;;;;;;5037549;28;20511;-72
2021/05/15 12:07:45;;;;;;;3.20;1.20;;;17.50;49.40;;;;;;5040655;28;20427;-73
2021/05/15 12:10:30;;;;;;;5.30;1.60;;;17.40;48.90;;;;;;5031692;28;20420;-71
2021/05/15 12:13:00;;;;;;;2.60;1.30;;;17.30;49.90;;;;;;5046738;28;20493;-73
2021/05/15 12:15:28;;;;;;;2.00;1.33;;;17.20;49.80;;;;;;5053424;28;20508;-73
2021/05/15 12:17:55;;;;;;;2.07;1.30;;;17.00;50.20;;;;;;5053111;28;20461;-70
2021/05/15 12:20:48;;;;;;;1.90;1.30;;;16.90;51.20;;;;;;5067692;28;20419;-73
2021/05/15 12:23:20;;;;;;;3.77;1.37;;;16.80;51.30;;;;;;5051251;28;20453;-73
2021/05/15 12:25:56;;;;;;;2.03;1.27;;;16.90;49.80;;;;;;5050924;28;20431;-73
2021/05/15 12:28:25;;;;;;;2.30;1.17;;;17.20;49.70;;;;;;5050900;28;20838;-72
2021/05/15 12:30:51;;;;;;;1.30;1.23;;;17.30;49.80;;;;;;5049048;28;20458;-72
2021/05/15 12:33:19;;;;;;;2.10;1.50;;;17.40;49.40;;;;;;5050744;28;20461;-73
2021/05/15 12:36:00;;;;;;;2.83;1.40;;;17.50;48.60;;;;;;5050624;28;20520;-73
2021/05/15 12:38:28;;;;;;;1.57;1.00;;;17.40;49.50;;;;;;5050408;28;20776;-72
2021/05/15 12:41:04;;;;;;;3.63;1.60;;;17.50;49.30;;;;;;5050445;28;21061;-74
2021/05/15 12:43:30;;;;;;;3.83;1.50;;;17.70;49.10;;;;;;5038770;28;20426;-74
2021/05/15 12:45:55;;;;;;;1.53;1.20;;;17.70;48.30;;;;;;5023040;28;20431;-75
2021/05/15 12:48:41;;;;;;;3.30;1.50;;;17.50;48.60;;;;;;5030782;28;20196;-74
2021/05/15 12:51:13;;;;;;;2.60;1.13;;;17.40;49.30;;;;;;5018783;28;20618;-74
2021/05/15 12:53:39;;;;;;;1.33;1.20;;;17.40;49.70;;;;;;5026191;28;20448;-72